Time;durP1;ratioP1;P1;durP2;ratioP2;P2;SDS_P1;SDS_P2;PMS_P1;PMS_P2;Temp;Humidity;BMP_temperature;BMP_pressure;BME280_temperature;BME280_humidity;BME280_pressure;Samples;Min_cycle;Max_cycle;Signal;HPM_P1;HPM_P2
2022/11/07 00:07:54;;;;;;;2.13;0.52;;;4.20;99.90;;;;;;21142435;28;20077;-56
2022/11/07 00:17:57;;;;;;;1.15;0.40;;;4.10;99.90;;;;;;21064770;28;20048;-55
2022/11/07 00:27:59;;;;;;;1.52;0.60;;;4.20;99.90;;;;;;21083718;28;20036;-55
2022/11/07 00:38:02;;;;;;;1.85;0.60;;;4.20;99.90;;;;;;21072462;28;20084;-66
2022/11/07 00:48:14;;;;;;;1.30;0.60;;;3.90;99.90;;;;;;21050751;28;20093;-57
2022/11/07 00:58:18;;;;;;;1.38;0.47;;;3.50;99.90;;;;;;21082963;28;20047;-54
2022/11/07 01:08:20;;;;;;;1.00;0.43;;;3.20;99.90;;;;;;21037138;28;20089;-65
2022/11/07 01:18:23;;;;;;;1.27;0.30;;;3.00;99.90;;;;;;20997433;28;20109;-54
2022/11/07 01:28:25;;;;;;;1.25;0.40;;;2.70;99.90;;;;;;21015902;28;20043;-65
2022/11/07 01:38:28;;;;;;;0.90;0.45;;;2.60;99.90;;;;;;20998694;28;20098;-54
2022/11/07 01:48:30;;;;;;;1.35;0.50;;;2.70;99.90;;;;;;20995570;28;20040;-65
2022/11/07 01:58:34;;;;;;;1.08;0.40;;;2.80;99.90;;;;;;21029281;28;20558;-55
2022/11/07 02:08:39;;;;;;;1.08;0.40;;;2.70;99.90;;;;;;21034376;28;20482;-65
2022/11/07 02:18:43;;;;;;;1.30;0.38;;;2.70;99.90;;;;;;21020282;28;20036;-56
2022/11/07 02:28:47;;;;;;;0.82;0.32;;;2.40;99.90;;;;;;21033124;28;20040;-65
2022/11/07 02:38:57;;;;;;;1.02;0.20;;;2.30;99.90;;;;;;21049553;28;20036;-54
2022/11/07 02:49:00;;;;;;;0.50;0.30;;;2.30;99.90;;;;;;21036695;28;20052;-65
2022/11/07 02:59:03;;;;;;;0.73;0.30;;;2.50;99.90;;;;;;21094175;28;20036;-65
2022/11/07 03:09:06;;;;;;;0.75;0.28;;;2.50;99.90;;;;;;21084215;28;20054;-57
2022/11/07 03:19:08;;;;;;;0.98;0.40;;;2.30;99.90;;;;;;21132172;28;20073;-58
2022/11/07 03:29:11;;;;;;;0.90;0.40;;;2.40;99.90;;;;;;21099711;28;20035;-67
2022/11/07 03:39:13;;;;;;;0.57;0.30;;;2.20;99.90;;;;;;21097980;28;20100;-59
2022/11/07 03:49:16;;;;;;;1.75;0.20;;;2.10;99.90;;;;;;21143669;28;20524;-57
2022/11/07 03:59:19;;;;;;;1.70;0.20;;;2.10;99.90;;;;;;21086542;28;20101;-53
2022/11/07 04:09:22;;;;;;;0.75;0.30;;;2.00;99.90;;;;;;21092112;28;20024;-55
2022/11/07 04:19:25;;;;;;;0.68;0.30;;;2.40;99.90;;;;;;21095521;28;20468;-53
2022/11/07 04:29:28;;;;;;;1.05;0.30;;;2.20;99.90;;;;;;21074714;28;20039;-55
2022/11/07 04:39:31;;;;;;;1.00;0.35;;;1.90;99.90;;;;;;21122985;28;20417;-64
2022/11/07 04:49:34;;;;;;;0.28;0.10;;;1.90;99.90;;;;;;21089635;28;20078;-64
2022/11/07 04:59:38;;;;;;;0.45;0.20;;;1.80;99.90;;;;;;21047014;28;20070;-64
2022/11/07 05:09:41;;;;;;;0.80;0.30;;;1.80;99.90;;;;;;21095296;28;20039;-53
2022/11/07 05:19:44;;;;;;;1.02;0.40;;;1.90;99.90;;;;;;21095738;28;20040;-53
2022/11/07 05:29:47;;;;;;;0.80;0.30;;;2.00;99.90;;;;;;21110775;28;20036;-56
2022/11/07 05:39:50;;;;;;;2.10;0.30;;;2.10;99.90;;;;;;21095227;28;20028;-56
2022/11/07 05:49:53;;;;;;;0.60;0.20;;;2.10;99.90;;;;;;21108435;28;20043;-64
2022/11/07 05:59:57;;;;;;;0.40;0.20;;;1.90;99.90;;;;;;21135893;28;20043;-54
2022/11/07 06:09:59;;;;;;;0.50;0.20;;;2.00;99.90;;;;;;21073176;28;20081;-65
2022/11/07 06:20:03;;;;;;;0.82;0.20;;;1.90;99.90;;;;;;21122068;28;20043;-55
2022/11/07 06:30:07;;;;;;;0.82;0.32;;;2.10;99.90;;;;;;21103099;28;20032;-56
2022/11/07 06:40:11;;;;;;;0.43;0.20;;;2.30;99.90;;;;;;21091779;28;20053;-66
2022/11/07 06:50:13;;;;;;;0.95;0.25;;;2.40;99.90;;;;;;21125840;28;20089;-66
2022/11/07 07:00:18;;;;;;;0.90;0.20;;;2.80;99.90;;;;;;21068211;28;20477;-67
2022/11/07 07:10:21;;;;;;;0.30;0.20;;;3.00;99.90;;;;;;21127610;28;20061;-57
2022/11/07 07:20:24;;;;;;;3.42;0.30;;;3.40;99.90;;;;;;21117770;28;20036;-61
2022/11/07 07:30:27;;;;;;;0.35;0.20;;;4.00;99.90;;;;;;21095458;28;20031;-59
2022/11/07 07:40:30;;;;;;;0.70;0.20;;;4.70;99.90;;;;;;21123851;28;20036;-58
2022/11/07 07:50:33;;;;;;;0.50;0.17;;;5.70;99.90;;;;;;21094634;28;20460;-58
2022/11/07 08:00:38;;;;;;;2.17;0.20;;;6.60;99.90;;;;;;21143293;28;20068;-57
2022/11/07 08:10:40;;;;;;;0.55;0.20;;;7.40;99.30;;;;;;21091999;28;20035;-57
2022/11/07 08:20:43;;;;;;;0.65;0.30;;;8.20;98.40;;;;;;21079312;28;20396;-59
2022/11/07 08:30:52;;;;;;;0.52;0.30;;;9.30;98.00;;;;;;21075908;28;20439;-58
2022/11/07 08:40:56;;;;;;;1.73;0.30;;;9.90;95.30;;;;;;21102491;28;20040;-58
2022/11/07 08:51:01;;;;;;;0.90;0.45;;;10.50;96.10;;;;;;21136633;28;20492;-59
2022/11/07 09:01:07;;;;;;;0.70;0.30;;;11.00;95.00;;;;;;21125292;28;20495;-58
2022/11/07 09:11:10;;;;;;;0.73;0.38;;;11.40;93.30;;;;;;21117143;28;20028;-59
2022/11/07 09:21:13;;;;;;;0.80;0.40;;;11.80;96.40;;;;;;21085433;28;20032;-59
2022/11/07 09:31:16;;;;;;;0.50;0.30;;;12.10;93.40;;;;;;21119895;28;20040;-61
2022/11/07 09:41:38;;;;;;;1.00;0.30;;;12.10;93.10;;;;;;21057281;28;20069;-60
2022/11/07 09:51:49;;;;;;;0.68;0.30;;;12.20;93.60;;;;;;21118583;28;20401;-60
2022/11/07 10:01:52;;;;;;;0.75;0.38;;;12.10;93.60;;;;;;21094784;28;20116;-59
2022/11/07 10:12:14;;;;;;;0.47;0.32;;;12.40;92.70;;;;;;21136606;28;20080;-60
2022/11/07 10:22:40;;;;;;;0.73;0.40;;;12.60;92.00;;;;;;21070132;28;20031;-60
2022/11/07 10:32:52;;;;;;;1.50;0.30;;;12.70;92.80;;;;;;21083356;28;20388;-59
2022/11/07 10:42:56;;;;;;;0.82;0.35;;;12.90;92.10;;;;;;21115503;28;20031;-59
2022/11/07 10:53:04;;;;;;;0.70;0.30;;;13.20;91.40;;;;;;21114424;28;20116;-58
2022/11/07 11:03:26;;;;;;;1.10;0.50;;;13.40;92.40;;;;;;21077016;28;20109;-60
2022/11/07 11:13:31;;;;;;;1.30;0.55;;;13.50;91.90;;;;;;21100281;28;20040;-60
2022/11/07 11:23:43;;;;;;;2.70;0.70;;;13.40;92.90;;;;;;21115659;28;20035;-61
2022/11/07 11:33:54;;;;;;;2.22;1.08;;;13.60;93.90;;;;;;21112021;28;20089;-61
2022/11/07 11:44:23;;;;;;;1.85;1.00;;;13.60;93.80;;;;;;21066493;28;20097;-59
2022/11/07 11:54:25;;;;;;;3.35;1.50;;;13.80;94.00;;;;;;21072610;28;20044;-61
2022/11/07 12:04:40;;;;;;;2.95;0.98;;;13.80;94.40;;;;;;21088532;28;20031;-60
2022/11/07 12:14:56;;;;;;;2.70;1.00;;;13.80;94.70;;;;;;21092194;28;20040;-59
2022/11/07 12:24:58;;;;;;;2.35;1.20;;;13.70;92.50;;;;;;21090474;28;20039;-61
2022/11/07 12:35:43;;;;;;;2.88;1.58;;;13.50;95.60;;;;;;21101399;28;20620;-60
2022/11/07 12:46:16;;;;;;;2.80;1.50;;;13.50;95.60;;;;;;21089162;28;20109;-61
2022/11/07 12:56:26;;;;;;;5.22;1.92;;;13.60;95.10;;;;;;20703066;28;20265;-60
2022/11/07 13:07:08;;;;;;;4.13;1.50;;;13.40;94.40;;;;;;20699343;28;20077;-60
2022/11/07 13:17:19;;;;;;;2.83;1.73;;;12.50;96.10;;;;;;20672275;28;20038;-65
2022/11/07 13:27:24;;;;;;;4.05;2.10;;;11.90;97.80;;;;;;20824371;28;20086;-59
2022/11/07 13:37:35;;;;;;;5.22;2.97;;;11.40;98.20;;;;;;21064570;28;20518;-66
2022/11/07 13:47:39;;;;;;;;;;;11.20;99.60;;;;;;21076833;28;20547;-66
2022/11/07 13:58:05;;;;;;;6.15;3.60;;;10.90;99.20;;;;;;21077281;28;20288;-65
2022/11/07 14:08:30;;;;;;;4.80;2.78;;;10.70;99.60;;;;;;21085880;28;20035;-58
2022/11/07 14:18:42;;;;;;;6.18;3.20;;;10.20;99.00;;;;;;21100743;28;20035;-59
2022/11/07 14:28:45;;;;;;;6.53;3.75;;;9.20;99.90;;;;;;21117391;28;20035;-56
2022/11/07 14:38:51;;;;;;;6.63;3.70;;;8.40;99.90;;;;;;21113112;28;20549;-57
2022/11/07 14:48:54;;;;;;;8.10;3.90;;;8.20;99.90;;;;;;21127054;28;20065;-58
2022/11/07 14:58:57;;;;;;;5.40;2.95;;;8.20;99.90;;;;;;21146296;28;20481;-64
2022/11/07 15:09:06;;;;;;;6.70;3.42;;;8.00;99.90;;;;;;21066000;28;20065;-58
2022/11/07 15:19:20;;;;;;;5.57;2.40;;;7.50;99.90;;;;;;21091932;28;20066;-57
2022/11/07 15:29:22;;;;;;;5.10;2.30;;;6.80;99.90;;;;;;21146426;28;20454;-56
2022/11/07 15:39:25;;;;;;;4.32;2.35;;;6.20;99.90;;;;;;21088145;28;20112;-63
2022/11/07 15:49:29;;;;;;;2.42;1.13;;;5.80;99.90;;;;;;21098324;28;20039;-63
2022/11/07 15:59:34;;;;;;;1.77;0.50;;;5.40;99.90;;;;;;21076565;28;20367;-63
2022/11/07 16:09:36;;;;;;;0.40;0.20;;;4.90;99.90;;;;;;21134293;28;20476;-57
2022/11/07 16:19:39;;;;;;;0.77;0.20;;;4.70;99.90;;;;;;21116699;28;20040;-63
2022/11/07 16:29:43;;;;;;;1.58;0.20;;;4.60;99.90;;;;;;21107779;28;20057;-55
2022/11/07 16:39:45;;;;;;;0.30;0.20;;;4.50;99.90;;;;;;21106315;28;20040;-64
2022/11/07 16:49:48;;;;;;;0.63;0.20;;;4.30;99.90;;;;;;21096994;28;20055;-56
2022/11/07 16:59:51;;;;;;;0.60;0.20;;;4.20;99.90;;;;;;21112336;28;20113;-64
2022/11/07 17:09:54;;;;;;;0.40;0.20;;;4.20;99.90;;;;;;21070112;28;20036;-57
2022/11/07 17:19:59;;;;;;;1.88;0.20;;;3.90;99.90;;;;;;21076119;28;20044;-55
2022/11/07 17:30:02;;;;;;;0.63;0.10;;;3.90;99.90;;;;;;21092169;28;20032;-56
2022/11/07 17:40:05;;;;;;;0.40;0.20;;;3.80;99.90;;;;;;21127005;28;20061;-54
2022/11/07 17:50:14;;;;;;;1.75;0.30;;;3.70;99.90;;;;;;21110979;28;20073;-56
2022/11/07 18:00:20;;;;;;;0.95;0.20;;;3.60;99.90;;;;;;21105302;28;20435;-54
2022/11/07 18:10:23;;;;;;;0.30;0.17;;;3.50;99.90;;;;;;21081744;28;20080;-64
2022/11/07 18:20:26;;;;;;;0.70;0.20;;;3.50;99.90;;;;;;21097224;28;20489;-56
2022/11/07 18:30:30;;;;;;;0.43;0.10;;;3.30;99.90;;;;;;21118929;28;20036;-55
2022/11/07 18:40:32;;;;;;;0.35;0.17;;;3.40;99.90;;;;;;21111957;28;20101;-65
2022/11/07 18:50:38;;;;;;;0.10;0.08;;;3.40;99.90;;;;;;21085742;28;20074;-65
2022/11/07 19:00:43;;;;;;;0.22;0.10;;;3.40;99.90;;;;;;21073905;28;20040;-55
2022/11/07 19:10:46;;;;;;;0.52;0.13;;;3.40;99.90;;;;;;21130581;28;20040;-56
2022/11/07 19:20:53;;;;;;;0.28;0.10;;;3.50;99.90;;;;;;21111375;28;20108;-55
2022/11/07 19:30:56;;;;;;;0.47;0.20;;;3.20;99.90;;;;;;21126804;28;20065;-65
2022/11/07 19:41:04;;;;;;;0.32;0.10;;;3.40;99.90;;;;;;21060936;28;20032;-55
2022/11/07 19:51:09;;;;;;;1.00;0.30;;;3.50;99.90;;;;;;21080375;28;20569;-55
2022/11/07 20:01:15;;;;;;;0.52;0.20;;;3.30;99.90;;;;;;21122642;28;20557;-65
2022/11/07 20:11:21;;;;;;;0.70;0.10;;;3.40;99.90;;;;;;21097647;28;20473;-54
2022/11/07 20:21:24;;;;;;;0.30;0.13;;;3.20;99.90;;;;;;21127378;28;20435;-65
2022/11/07 20:31:33;;;;;;;0.80;0.20;;;3.00;99.90;;;;;;21084321;28;20032;-65
2022/11/07 20:41:36;;;;;;;0.68;0.30;;;3.40;99.90;;;;;;21067930;28;20035;-66
2022/11/07 20:51:40;;;;;;;1.05;0.35;;;3.70;99.90;;;;;;21105839;28;20044;-66
2022/11/07 21:01:42;;;;;;;0.63;0.20;;;3.80;99.90;;;;;;21088277;28;20260;-53
2022/11/07 21:11:45;;;;;;;0.73;0.28;;;3.70;99.90;;;;;;21092270;28;20035;-54
2022/11/07 21:21:48;;;;;;;1.05;0.40;;;3.30;99.90;;;;;;21115251;28;20040;-66
2022/11/07 21:31:52;;;;;;;1.90;0.40;;;3.10;99.90;;;;;;21052934;28;20044;-56
2022/11/07 21:41:54;;;;;;;0.80;0.35;;;3.00;99.90;;;;;;21062545;28;20027;-56
2022/11/07 21:51:57;;;;;;;1.13;0.40;;;2.90;99.90;;;;;;21060040;28;20065;-53
2022/11/07 22:02:00;;;;;;;1.92;0.50;;;3.20;99.90;;;;;;21141028;28;20036;-56
2022/11/07 22:12:03;;;;;;;0.80;0.50;;;3.10;99.90;;;;;;21158932;28;20035;-55
2022/11/07 22:22:06;;;;;;;1.10;0.45;;;3.00;99.90;;;;;;21115532;28;20093;-65
2022/11/07 22:32:11;;;;;;;0.77;0.20;;;2.70;99.90;;;;;;21124349;28;20073;-56
2022/11/07 22:42:13;;;;;;;0.90;0.30;;;2.70;99.90;;;;;;21115408;28;20460;-65
2022/11/07 22:52:16;;;;;;;0.50;0.20;;;2.70;99.90;;;;;;21111297;28;20096;-56
2022/11/07 23:02:18;;;;;;;1.65;0.30;;;2.70;99.90;;;;;;21127721;28;20411;-65
2022/11/07 23:12:21;;;;;;;1.10;0.30;;;2.60;99.90;;;;;;21084086;28;20028;-53
2022/11/07 23:22:23;;;;;;;0.73;0.20;;;2.40;99.90;;;;;;21082477;28;20031;-54
2022/11/07 23:32:30;;;;;;;0.30;0.10;;;2.40;99.90;;;;;;21129613;28;20488;-56
2022/11/07 23:42:33;;;;;;;0.57;0.17;;;2.50;99.90;;;;;;21111791;28;20501;-54
2022/11/07 23:52:35;;;;;;;2.35;0.50;;;2.40;99.90;;;;;;21114523;28;20113;-54
